createdAt,value
2022-10-19T00:09:32.298Z,8.00
2022-10-19T00:31:19.408Z,9.50
2022-10-19T00:53:05.207Z,9.80
2022-10-19T01:15:04.679Z,8.50
2022-10-19T01:37:00.846Z,11.90
2022-10-19T02:02:44.529Z,10.50
2022-10-19T02:24:30.823Z,12.70
2022-10-19T02:46:24.581Z,14.70
2022-10-19T03:08:10.448Z,15.90
2022-10-19T03:29:56.763Z,14.40
2022-10-19T03:51:45.035Z,14.80
2022-10-19T04:13:31.346Z,15.20
2022-10-19T04:35:17.359Z,15.00
2022-10-19T04:57:03.221Z,13.90
2022-10-19T05:18:52.689Z,11.20
2022-10-19T05:40:38.643Z,9.10
2022-10-19T06:02:24.806Z,6.10
2022-10-19T06:24:13.310Z,5.20
2022-10-19T06:45:59.407Z,5.70
2022-10-19T07:07:45.729Z,5.50
2022-10-19T07:29:31.630Z,4.60
2022-10-19T07:51:21.191Z,4.50
2022-10-19T08:13:07.068Z,4.30
2022-10-19T08:34:52.927Z,3.20
2022-10-19T08:56:51.953Z,2.90
2022-10-19T09:18:38.255Z,2.50
2022-10-19T09:40:32.169Z,2.10
2022-10-19T10:02:22.543Z,2.10
2022-10-19T10:24:18.266Z,1.90
2022-10-19T10:46:08.337Z,1.60
2022-10-19T11:07:57.941Z,1.80
2022-10-19T11:30:04.751Z,1.40
2022-10-19T11:51:58.375Z,1.20
2022-10-19T12:13:49.420Z,2.00
2022-10-19T12:35:50.302Z,2.10
2022-10-19T12:57:36.558Z,2.00
2022-10-19T13:19:24.279Z,2.10
2022-10-19T13:41:15.365Z,1.90
2022-10-19T14:03:19.303Z,1.90
2022-10-19T14:25:18.177Z,1.70
2022-10-19T14:47:08.194Z,2.10
2022-10-19T15:09:12.148Z,1.90
2022-10-19T15:31:16.932Z,2.50
2022-10-19T16:02:46.313Z,2.50
2022-10-19T16:24:32.595Z,2.90
2022-10-19T16:46:21.941Z,3.00
2022-10-19T17:26:00.723Z,3.10
2022-10-19T17:47:46.440Z,3.10
2022-10-19T18:09:32.353Z,3.90
2022-10-19T18:31:20.629Z,4.30
2022-10-19T18:53:06.534Z,4.70
2022-10-19T19:14:52.452Z,6.30
2022-10-19T19:58:25.734Z,7.20
2022-10-19T20:20:17.983Z,10.20
2022-10-19T20:42:04.274Z,9.90
2022-10-19T21:03:52.672Z,5.80
2022-10-19T21:25:38.905Z,5.50
2022-10-19T21:47:24.689Z,5.10
2022-10-19T22:09:13.394Z,5.30
2022-10-19T22:31:00.535Z,5.50
2022-10-19T22:52:46.439Z,6.70
2022-10-19T23:14:32.295Z,6.60
2022-10-19T23:36:20.114Z,5.90
2022-10-19T23:58:06.697Z,7.40
